Time;durP1;ratioP1;P1;durP2;ratioP2;P2;SDS_P1;SDS_P2;PMS_P1;PMS_P2;Temp;Humidity;BMP_temperature;BMP_pressure;BME280_temperature;BME280_humidity;BME280_pressure;Samples;Min_cycle;Max_cycle;Signal;HPM_P1;HPM_P2
2024/04/13 00:05:16;;;;;;;;;;;9.50;99.90;;;;;;22676918;26;19928;-79
2024/04/13 00:15:17;;;;;;;;;;;9.40;99.90;;;;;;22694078;26;19928;-77
2024/04/13 00:25:18;;;;;;;;;;;9.20;99.90;;;;;;22650861;26;20348;-78
2024/04/13 00:35:21;;;;;;;;;;;8.90;99.90;;;;;;22668736;26;19932;-78
2024/04/13 00:45:27;;;;;;;;;;;9.00;99.90;;;;;;22670023;26;19960;-78
2024/04/13 00:55:28;;;;;;;;;;;9.10;99.90;;;;;;22688871;26;19939;-78
2024/04/13 01:05:29;;;;;;;;;;;8.70;99.90;;;;;;22619564;26;19973;-78
2024/04/13 01:15:30;;;;;;;;;;;8.40;99.90;;;;;;22660281;26;19992;-78
2024/04/13 01:25:31;;;;;;;;;;;8.60;99.90;;;;;;22643719;26;19928;-79
2024/04/13 01:35:32;;;;;;;;;;;8.40;99.90;;;;;;22623540;26;19952;-78
2024/04/13 01:45:32;;;;;;;;;;;8.30;99.90;;;;;;22649139;26;19928;-76
2024/04/13 01:55:33;;;;;;;;;;;8.30;99.90;;;;;;22685889;26;19934;-79
2024/04/13 02:05:34;;;;;;;;;;;8.30;99.90;;;;;;22712266;26;19928;-78
2024/04/13 02:15:35;;;;;;;;;;;8.10;99.90;;;;;;22697725;26;19928;-79
2024/04/13 02:25:36;;;;;;;;;;;8.00;99.90;;;;;;22712152;26;19935;-79
2024/04/13 02:35:37;;;;;;;;;;;7.90;99.90;;;;;;22666517;26;19944;-79
2024/04/13 02:45:37;;;;;;;;;;;8.00;99.90;;;;;;22687554;26;19939;-79
2024/04/13 02:55:40;;;;;;;;;;;7.70;99.90;;;;;;22646021;26;20295;-78
2024/04/13 03:05:40;;;;;;;;;;;7.40;99.90;;;;;;22637430;26;19932;-79
2024/04/13 03:15:41;;;;;;;;;;;7.40;99.90;;;;;;22692680;26;19935;-78
2024/04/13 03:25:42;;;;;;;;;;;7.40;99.90;;;;;;22717878;26;19928;-78
2024/04/13 03:35:42;;;;;;;;;;;7.30;99.90;;;;;;22660215;26;19936;-78
2024/04/13 03:45:52;;;;;;;;;;;7.60;99.90;;;;;;22676796;26;19957;-78
2024/04/13 03:55:53;;;;;;;;;;;7.50;99.90;;;;;;22641484;26;19956;-79
2024/04/13 04:05:54;;;;;;;;;;;7.50;99.90;;;;;;22646092;26;19957;-78
2024/04/13 04:15:54;;;;;;;;;;;7.40;99.90;;;;;;22668042;26;20298;-78
2024/04/13 04:25:55;;;;;;;;;;;7.60;99.90;;;;;;22639102;26;19961;-78
2024/04/13 04:35:56;;;;;;;;;;;7.80;99.90;;;;;;22702794;26;19940;-79
2024/04/13 04:45:56;;;;;;;;;;;7.80;99.90;;;;;;22622707;26;19940;-77
2024/04/13 04:55:58;;;;;;;;;;;7.90;99.90;;;;;;22622159;26;19936;-78
2024/04/13 05:05:58;;;;;;;;;;;7.80;99.90;;;;;;22687173;26;19943;-78
2024/04/13 05:15:59;;;;;;;;;;;7.80;99.90;;;;;;22680698;26;19928;-77
2024/04/13 05:25:59;;;;;;;;;;;8.30;99.90;;;;;;22628781;26;19928;-79
2024/04/13 05:36:00;;;;;;;;;;;8.50;99.90;;;;;;22644767;26;20010;-78
2024/04/13 05:46:01;;;;;;;;;;;8.80;99.90;;;;;;22605714;26;19929;-78
2024/04/13 05:56:06;;;;;;;;;;;9.30;99.90;;;;;;22613283;26;19928;-78
2024/04/13 06:06:07;;;;;;;;;;;9.40;99.90;;;;;;22629162;26;19938;-78
2024/04/13 06:16:08;;;;;;;;;;;9.70;99.90;;;;;;22668999;26;19940;-79
2024/04/13 06:26:09;;;;;;;;;;;10.30;99.90;;;;;;22699054;26;19936;-77
2024/04/13 06:36:10;;;;;;;;;;;10.90;99.90;;;;;;22682780;26;20609;-78
2024/04/13 06:46:10;;;;;;;;;;;11.10;99.90;;;;;;22700903;26;19928;-78
2024/04/13 06:56:13;;;;;;;;;;;11.80;99.90;;;;;;22679811;26;19928;-78
2024/04/13 07:06:14;;;;;;;;;;;12.40;99.90;;;;;;22682723;26;19928;-74
2024/04/13 07:16:14;;;;;;;;;;;13.20;99.90;;;;;;22666456;26;19955;-78
2024/04/13 07:26:15;;;;;;;;;;;14.10;99.90;;;;;;22634433;26;19935;-77
2024/04/13 07:36:16;;;;;;;;;;;14.40;99.90;;;;;;22665984;26;20029;-78
2024/04/13 07:46:18;;;;;;;;;;;14.80;99.90;;;;;;22695991;26;19927;-79
2024/04/13 07:56:19;;;;;;;;;;;15.80;99.90;;;;;;22712908;26;19940;-78
2024/04/13 08:06:20;;;;;;;;;;;16.60;99.90;;;;;;22745189;26;20263;-78
2024/04/13 08:16:20;;;;;;;;;;;17.40;99.90;;;;;;22747473;26;19934;-77
2024/04/13 08:26:21;;;;;;;;;;;18.00;99.90;;;;;;22723919;26;20363;-77
2024/04/13 08:36:22;;;;;;;;;;;18.90;99.90;;;;;;22730982;26;19939;-78
2024/04/13 08:46:23;;;;;;;;;;;19.80;99.90;;;;;;22727524;26;19935;-78
2024/04/13 08:56:24;;;;;;;;;;;20.40;99.90;;;;;;22726517;26;19928;-79
2024/04/13 09:06:25;;;;;;;;;;;21.50;99.90;;;;;;22673880;26;19992;-78
2024/04/13 09:16:26;;;;;;;;;;;22.40;99.90;;;;;;22688298;26;19933;-79
2024/04/13 09:26:26;;;;;;;;;;;22.50;99.90;;;;;;22715447;26;19968;-79
2024/04/13 09:36:27;;;;;;;;;;;22.80;99.90;;;;;;22717190;26;19937;-77
2024/04/13 09:46:28;;;;;;;;;;;24.00;99.90;;;;;;22715570;26;19939;-78
2024/04/13 09:56:30;;;;;;;;;;;23.40;99.90;;;;;;22715322;26;19928;-78
2024/04/13 10:06:32;;;;;;;;;;;24.90;99.90;;;;;;22718565;26;19960;-78
2024/04/13 10:16:33;;;;;;;;;;;25.40;99.90;;;;;;22720419;26;19928;-78
2024/04/13 10:26:33;;;;;;;;;;;24.40;99.90;;;;;;22687743;26;20266;-79
2024/04/13 10:36:37;;;;;;;;;;;24.30;99.90;;;;;;22671042;26;19939;-78
2024/04/13 10:46:40;;;;;;;;;;;25.20;99.90;;;;;;22716850;26;19935;-78
2024/04/13 10:56:44;;;;;;;;;;;24.70;99.90;;;;;;22714612;26;19960;-78
2024/04/13 11:06:45;;;;;;;;;;;24.90;99.90;;;;;;22721739;26;19928;-78
2024/04/13 11:16:46;;;;;;;;;;;25.90;99.90;;;;;;22715360;26;19995;-81
2024/04/13 11:26:47;;;;;;;;;;;27.40;99.90;;;;;;22700660;26;20440;-81
2024/04/13 11:36:47;;;;;;;;;;;25.20;99.90;;;;;;22764162;26;19928;-80
2024/04/13 11:46:48;;;;;;;;;;;27.60;99.90;;;;;;22782686;26;20262;-81
2024/04/13 11:56:48;;;;;;;;;;;28.50;99.90;;;;;;22772183;26;19928;-80
2024/04/13 12:06:49;;;;;;;;;;;28.70;96.30;;;;;;22714569;26;19928;-79
2024/04/13 12:16:50;;;;;;;;;;;29.10;99.70;;;;;;22727005;26;19932;-78
2024/04/13 12:26:50;;;;;;;;;;;28.40;99.10;;;;;;22707801;26;19928;-78
2024/04/13 12:36:51;;;;;;;;;;;27.40;96.50;;;;;;22694461;26;20005;-78
2024/04/13 12:46:52;;;;;;;;;;;28.60;97.80;;;;;;22662964;26;20057;-78
2024/04/13 12:56:52;;;;;;;;;;;28.40;96.60;;;;;;22610866;26;19989;-78
2024/04/13 13:06:54;;;;;;;;;;;27.90;97.30;;;;;;22654426;26;19928;-78
2024/04/13 13:16:54;;;;;;;;;;;28.80;95.30;;;;;;22678947;26;19997;-78
2024/04/13 13:26:56;;;;;;;;;;;28.30;94.60;;;;;;22729004;26;19936;-78
2024/04/13 13:36:57;;;;;;;;;;;29.20;94.00;;;;;;22699364;26;19928;-77
2024/04/13 13:46:57;;;;;;;;;;;28.80;93.00;;;;;;22696783;26;19928;-78
2024/04/13 13:56:58;;;;;;;;;;;28.10;94.20;;;;;;22700484;26;20008;-78
2024/04/13 14:06:59;;;;;;;;;;;28.10;90.70;;;;;;22678813;26;19932;-78
2024/04/13 14:16:59;;;;;;;;;;;26.80;88.70;;;;;;22702977;26;19935;-78
2024/04/13 14:27:00;;;;;;;;;;;27.40;86.20;;;;;;22692446;26;20407;-78
2024/04/13 14:37:01;;;;;;;;;;;28.40;89.70;;;;;;22600627;26;19936;-78
2024/04/13 14:47:02;;;;;;;;;;;27.40;84.70;;;;;;22656509;26;20316;-75
2024/04/13 14:57:03;;;;;;;;;;;28.30;87.50;;;;;;22596092;26;19928;-75
2024/04/13 15:07:03;;;;;;;;;;;27.50;90.30;;;;;;22595411;26;19997;-77
2024/04/13 15:17:04;;;;;;;;;;;27.30;90.20;;;;;;22621333;26;19928;-77
2024/04/13 15:27:05;;;;;;;;;;;27.50;86.90;;;;;;22638256;26;19935;-78
2024/04/13 15:37:06;;;;;;;;;;;27.70;84.80;;;;;;22594963;26;19928;-78
2024/04/13 15:47:06;;;;;;;;;;;26.90;84.10;;;;;;22742062;26;19996;-77
2024/04/13 15:57:07;;;;;;;;;;;26.70;90.40;;;;;;22699912;26;19939;-77
2024/04/13 16:07:07;;;;;;;;;;;26.50;90.80;;;;;;22710490;26;19928;-77
2024/04/13 16:17:08;;;;;;;;;;;26.10;91.80;;;;;;22731657;26;20243;-77
2024/04/13 16:27:09;;;;;;;;;;;25.70;93.00;;;;;;22717790;26;20422;-77
2024/04/13 16:37:09;;;;;;;;;;;25.50;92.80;;;;;;22709650;26;19928;-76
2024/04/13 16:47:10;;;;;;;;;;;25.50;93.50;;;;;;22721447;26;19928;-76
2024/04/13 16:57:11;;;;;;;;;;;25.40;93.00;;;;;;22718306;26;19928;-76
2024/04/13 17:07:11;;;;;;;;;;;25.30;92.80;;;;;;22718875;26;19935;-76
2024/04/13 17:17:14;;;;;;;;;;;25.20;93.30;;;;;;22717295;26;19936;-77
2024/04/13 17:27:15;;;;;;;;;;;24.90;94.40;;;;;;22718460;26;19996;-77
2024/04/13 17:37:15;;;;;;;;;;;24.10;97.10;;;;;;22717796;26;19928;-76
2024/04/13 17:47:16;;;;;;;;;;;23.20;99.90;;;;;;22715414;26;20360;-75
2024/04/13 17:57:17;;;;;;;;;;;22.20;99.90;;;;;;22674556;26;19928;-77
2024/04/13 18:07:17;;;;;;;;;;;21.50;99.90;;;;;;22670545;26;19936;-77
2024/04/13 18:17:18;;;;;;;;;;;21.00;99.90;;;;;;22705962;26;19931;-77
2024/04/13 18:27:19;;;;;;;;;;;20.50;99.90;;;;;;22694190;26;19928;-76
2024/04/13 18:37:19;;;;;;;;;;;20.00;99.90;;;;;;22702212;26;20010;-77
2024/04/13 18:47:20;;;;;;;;;;;19.40;99.90;;;;;;22640656;26;19935;-76
2024/04/13 18:57:21;;;;;;;;;;;18.20;99.90;;;;;;22561847;26;19947;-75
2024/04/13 19:07:21;;;;;;;;;;;17.90;99.90;;;;;;22560836;26;19940;-75
2024/04/13 19:17:22;;;;;;;;;;;17.70;99.90;;;;;;22684331;26;20320;-75
2024/04/13 19:27:23;;;;;;;;;;;17.40;99.90;;;;;;22711197;26;19928;-75
2024/04/13 19:37:25;;;;;;;;;;;17.10;99.90;;;;;;22687138;26;19928;-75
2024/04/13 19:47:26;;;;;;;;;;;16.50;99.90;;;;;;22709786;26;20370;-75
2024/04/13 19:57:26;;;;;;;;;;;16.20;99.90;;;;;;22693659;26;19956;-77
2024/04/13 20:07:29;;;;;;;;;;;16.10;99.90;;;;;;22719140;26;20383;-77
2024/04/13 20:27:49;;;;;;;;;;;15.60;99.90;;;;;;22576562;26;19929;-78
2024/04/13 20:37:50;;;;;;;;;;;15.30;99.90;;;;;;22594595;26;19955;-77
2024/04/13 20:47:51;;;;;;;;;;;15.40;99.90;;;;;;22715621;26;19927;-77
2024/04/13 20:57:51;;;;;;;;;;;14.90;99.90;;;;;;22630167;26;19932;-77
2024/04/13 21:07:52;;;;;;;;;;;14.60;99.90;;;;;;22633618;26;19929;-77
2024/04/13 21:17:53;;;;;;;;;;;14.30;99.90;;;;;;22645036;26;19935;-77
2024/04/13 21:27:53;;;;;;;;;;;14.30;99.90;;;;;;22693709;26;19928;-77
2024/04/13 21:37:57;;;;;;;;;;;14.40;99.90;;;;;;22664809;26;19960;-76
2024/04/13 21:47:58;;;;;;;;;;;14.40;99.90;;;;;;22569534;26;20026;-77
2024/04/13 21:57:59;;;;;;;;;;;13.60;99.90;;;;;;22641976;26;19955;-78
2024/04/13 22:07:59;;;;;;;;;;;13.70;99.90;;;;;;22647897;26;19928;-77
2024/04/13 22:18:00;;;;;;;;;;;12.90;99.90;;;;;;22649201;26;19928;-75
2024/04/13 22:28:01;;;;;;;;;;;13.00;99.90;;;;;;22662208;26;20286;-77
2024/04/13 22:38:01;;;;;;;;;;;12.80;99.90;;;;;;22643832;26;19993;-77
2024/04/13 22:48:02;;;;;;;;;;;12.70;99.90;;;;;;22683858;26;20455;-77
2024/04/13 22:58:03;;;;;;;;;;;12.80;99.90;;;;;;22701972;26;19935;-77
2024/04/13 23:08:06;;;;;;;;;;;12.60;99.90;;;;;;22711088;26;19963;-77
2024/04/13 23:18:07;;;;;;;;;;;12.40;99.90;;;;;;22698450;26;20427;-78
2024/04/13 23:28:08;;;;;;;;;;;12.00;99.90;;;;;;22697800;26;19947;-78
2024/04/13 23:38:09;;;;;;;;;;;11.70;99.90;;;;;;22696111;26;19960;-77
2024/04/13 23:48:10;;;;;;;;;;;11.40;99.90;;;;;;22704722;26;19996;-77
2024/04/13 23:58:11;;;;;;;;;;;11.20;99.90;;;;;;22714788;26;19928;-77
